createdAt,value
2022-09-24T00:01:24.147Z,13.30
2022-09-24T00:03:53.133Z,10.52
2022-09-24T00:06:22.905Z,12.60
2022-09-24T00:08:52.695Z,14.98
2022-09-24T00:11:21.475Z,11.65
2022-09-24T00:13:49.896Z,12.75
2022-09-24T00:16:19.264Z,12.95
2022-09-24T00:18:47.549Z,15.50
2022-09-24T00:21:16.740Z,10.77
2022-09-24T00:23:46.800Z,11.38
2022-09-24T00:26:33.085Z,11.73
2022-09-24T00:29:01.659Z,10.45
2022-09-24T00:31:30.361Z,14.00
2022-09-24T00:33:59.333Z,12.70
2022-09-24T00:36:27.667Z,14.18
2022-09-24T00:38:58.427Z,12.32
2022-09-24T00:41:27.715Z,12.27
2022-09-24T00:43:56.232Z,12.30
2022-09-24T00:46:26.658Z,12.85
2022-09-24T00:48:57.274Z,11.35
2022-09-24T00:51:26.767Z,16.05
2022-09-24T00:53:58.349Z,14.27
2022-09-24T00:56:27.146Z,14.93
2022-09-24T00:58:57.665Z,12.57
2022-09-24T01:01:26.964Z,14.38
2022-09-24T01:03:56.586Z,13.80
2022-09-24T01:06:25.345Z,12.68
2022-09-24T01:08:54.021Z,12.18
2022-09-24T01:11:29.627Z,12.85
2022-09-24T01:14:08.980Z,13.23
2022-09-24T01:16:40.480Z,14.55
2022-09-24T01:19:14.288Z,15.35
2022-09-24T01:21:47.440Z,15.90
2022-09-24T01:24:34.018Z,12.77
2022-09-24T01:27:05.900Z,13.77
2022-09-24T01:29:42.104Z,14.68
2022-09-24T01:32:13.118Z,13.98
2022-09-24T01:34:43.790Z,11.85
2022-09-24T01:37:14.017Z,15.13
2022-09-24T01:39:43.832Z,14.18
2022-09-24T01:42:12.715Z,15.73
2022-09-24T01:44:44.671Z,11.52
2022-09-24T01:47:18.349Z,14.32
2022-09-24T01:49:46.711Z,12.02
2022-09-24T01:52:18.924Z,14.93
2022-09-24T01:54:51.780Z,13.10
2022-09-24T01:57:22.779Z,14.50
2022-09-24T01:59:55.271Z,15.15
2022-09-24T02:02:27.595Z,12.93
2022-09-24T02:05:00.553Z,14.68
2022-09-24T02:07:34.433Z,13.82
2022-09-24T02:10:02.768Z,19.40
2022-09-24T02:12:34.093Z,16.08
2022-09-24T02:15:08.969Z,13.52
2022-09-24T02:17:39.512Z,13.70
2022-09-24T02:20:10.853Z,12.23
2022-09-24T02:22:39.273Z,12.32
2022-09-24T02:25:10.412Z,12.38
2022-09-24T02:27:38.690Z,13.32
2022-09-24T02:30:10.106Z,10.98
2022-09-24T02:32:41.952Z,13.20
2022-09-24T02:35:10.240Z,14.52
2022-09-24T02:37:39.111Z,12.20
2022-09-24T02:40:08.830Z,14.02
2022-09-24T02:42:37.720Z,12.23
2022-09-24T02:45:06.363Z,14.23
2022-09-24T02:47:36.889Z,15.40
2022-09-24T02:50:05.450Z,13.00
2022-09-24T02:52:33.873Z,13.00
2022-09-24T02:55:02.987Z,13.07
2022-09-24T02:57:31.295Z,14.57
2022-09-24T02:59:59.587Z,13.93
2022-09-24T03:02:27.981Z,12.57
2022-09-24T03:04:57.660Z,14.38
2022-09-24T03:07:25.918Z,12.38
2022-09-24T03:09:54.195Z,12.80
2022-09-24T03:12:22.513Z,15.95
2022-09-24T03:14:51.026Z,13.82
2022-09-24T03:17:19.330Z,14.10
2022-09-24T03:19:47.769Z,13.80
2022-09-24T03:22:17.378Z,13.25
2022-09-24T03:24:45.908Z,14.85
2022-09-24T03:27:14.252Z,15.82
2022-09-24T03:30:00.094Z,15.02
2022-09-24T03:32:29.261Z,12.88
2022-09-24T03:34:57.542Z,15.27
2022-09-24T03:37:27.354Z,13.80
2022-09-24T03:39:55.737Z,13.07
2022-09-24T03:42:24.007Z,16.63
2022-09-24T03:44:52.921Z,17.20
2022-09-24T03:47:21.208Z,12.90
2022-09-24T03:49:49.502Z,11.80
2022-09-24T03:52:18.304Z,13.15
2022-09-24T03:54:47.908Z,13.30
2022-09-24T03:57:16.169Z,13.27
2022-09-24T03:59:44.645Z,14.52
2022-09-24T04:02:13.406Z,14.38
2022-09-24T04:04:41.977Z,15.60
2022-09-24T04:07:10.262Z,16.13
2022-09-24T04:09:38.524Z,14.55
2022-09-24T04:12:08.168Z,17.98
2022-09-24T04:14:37.263Z,14.80
2022-09-24T04:17:06.678Z,13.55
2022-09-24T04:19:35.051Z,15.52
2022-09-24T04:22:03.755Z,15.48
2022-09-24T04:24:32.041Z,16.25
2022-09-24T04:27:00.322Z,14.38
2022-09-24T04:29:29.952Z,18.60
2022-09-24T04:31:58.299Z,15.02
2022-09-24T04:34:26.577Z,15.32
2022-09-24T04:36:54.886Z,14.95
2022-09-24T04:39:27.284Z,15.65
2022-09-24T04:41:55.792Z,19.05
2022-09-24T04:44:24.283Z,18.30
2022-09-24T04:47:00.834Z,17.13
2022-09-24T04:49:29.577Z,15.75
2022-09-24T04:51:58.865Z,15.95
2022-09-24T04:54:29.164Z,14.85
2022-09-24T04:56:57.459Z,15.27
2022-09-24T04:59:25.740Z,12.63
2022-09-24T05:01:55.447Z,15.43
2022-09-24T05:04:24.263Z,16.23
2022-09-24T05:06:52.592Z,15.65
2022-09-24T05:09:20.947Z,13.18
2022-09-24T05:11:49.539Z,15.10
2022-09-24T05:14:17.833Z,14.55
2022-09-24T05:16:46.100Z,14.85
2022-09-24T05:19:15.735Z,15.55
2022-09-24T05:21:44.017Z,16.90
2022-09-24T05:24:12.345Z,15.07
2022-09-24T05:26:58.389Z,15.07
2022-09-24T05:29:26.830Z,15.48
2022-09-24T05:31:55.114Z,15.23
2022-09-24T05:34:24.730Z,15.00
2022-09-24T05:36:53.017Z,14.70
2022-09-24T05:39:21.316Z,17.15
2022-09-24T05:41:49.627Z,15.80
2022-09-24T05:44:19.674Z,14.10
2022-09-24T05:46:48.028Z,12.68
2022-09-24T05:49:16.493Z,16.60
2022-09-24T05:51:46.355Z,14.43
2022-09-24T05:54:14.630Z,14.65
2022-09-24T05:56:42.958Z,12.88
2022-09-24T05:59:11.507Z,12.32
2022-09-24T06:01:39.881Z,15.38
2022-09-24T06:04:09.309Z,14.70
2022-09-24T06:06:37.764Z,13.88
2022-09-24T06:09:09.976Z,14.90
2022-09-24T06:11:40.724Z,14.93
2022-09-24T06:14:09.754Z,14.90
2022-09-24T06:16:38.169Z,14.93
2022-09-24T06:19:06.661Z,15.20
2022-09-24T06:21:34.955Z,13.70
2022-09-24T06:24:03.921Z,15.13
2022-09-24T06:26:34.062Z,14.13
2022-09-24T06:29:05.083Z,14.05
2022-09-24T06:31:34.661Z,14.35
2022-09-24T06:34:03.658Z,14.40
2022-09-24T06:36:31.936Z,13.23
2022-09-24T06:39:00.282Z,15.00
2022-09-24T06:41:28.596Z,13.65
2022-09-24T06:43:58.239Z,12.18
2022-09-24T06:46:26.676Z,12.77
2022-09-24T06:48:55.590Z,12.27
2022-09-24T06:51:23.870Z,15.68
2022-09-24T06:53:53.288Z,12.07
2022-09-24T06:56:21.718Z,16.55
2022-09-24T06:58:50.001Z,11.52
2022-09-24T07:01:19.685Z,14.20
2022-09-24T07:03:48.046Z,12.45
2022-09-24T07:06:16.362Z,10.70
2022-09-24T07:08:44.714Z,13.13
2022-09-24T07:11:15.296Z,16.10
2022-09-24T07:13:43.661Z,11.90
2022-09-24T07:16:12.158Z,11.57
2022-09-24T07:18:41.903Z,12.10
2022-09-24T07:21:10.207Z,13.40
2022-09-24T07:23:38.719Z,11.15
2022-09-24T07:26:07.086Z,14.50
2022-09-24T07:28:35.460Z,14.38
2022-09-24T07:31:03.909Z,15.68
2022-09-24T07:33:33.111Z,13.10
2022-09-24T07:36:06.668Z,12.95
2022-09-24T07:38:36.206Z,12.65
2022-09-24T07:41:06.062Z,16.02
2022-09-24T07:43:34.353Z,16.35
2022-09-24T07:46:02.803Z,12.95
2022-09-24T07:48:31.155Z,13.90
2022-09-24T07:51:00.557Z,12.27
2022-09-24T07:53:30.187Z,13.57
2022-09-24T07:56:00.494Z,10.13
2022-09-24T07:58:28.784Z,13.02
2022-09-24T08:00:59.644Z,12.73
2022-09-24T08:03:28.143Z,10.38
2022-09-24T08:05:58.698Z,10.20
2022-09-24T08:08:27.208Z,9.63
2022-09-24T08:10:56.860Z,11.93
2022-09-24T08:13:27.863Z,10.23
2022-09-24T08:16:00.380Z,8.45
2022-09-24T08:18:29.239Z,10.32
2022-09-24T08:20:57.719Z,11.32
2022-09-24T08:23:26.014Z,10.85
2022-09-24T08:25:56.817Z,12.73
2022-09-24T08:28:25.128Z,11.82
2022-09-24T08:30:53.501Z,12.10
2022-09-24T08:33:21.842Z,15.10
2022-09-24T08:35:50.771Z,12.73
2022-09-24T08:38:20.867Z,11.90
2022-09-24T08:40:55.002Z,11.95
2022-09-24T08:43:31.482Z,13.48
2022-09-24T08:46:19.873Z,13.40
2022-09-24T08:48:51.402Z,12.57
2022-09-24T08:51:20.491Z,15.18
2022-09-24T08:53:50.719Z,13.13
2022-09-24T08:56:20.650Z,14.10
2022-09-24T08:58:52.709Z,12.02
2022-09-24T09:01:26.528Z,11.73
2022-09-24T09:03:56.259Z,12.02
2022-09-24T09:06:35.583Z,11.20
2022-09-24T09:09:07.512Z,12.82
2022-09-24T09:11:37.105Z,12.25
2022-09-24T09:14:13.256Z,12.27
2022-09-24T09:16:46.097Z,12.20
2022-09-24T09:19:15.993Z,10.98
2022-09-24T09:21:45.850Z,14.07
2022-09-24T09:24:18.770Z,10.65
2022-09-24T09:26:49.178Z,11.70
2022-09-24T09:29:19.200Z,9.20
2022-09-24T09:31:56.084Z,13.95
2022-09-24T09:34:34.821Z,10.55
2022-09-24T09:37:09.475Z,9.52
2022-09-24T09:39:43.607Z,13.02
2022-09-24T09:42:22.653Z,11.85
2022-09-24T09:44:52.607Z,10.45
2022-09-24T09:47:24.602Z,11.80
2022-09-24T09:49:53.814Z,10.32
2022-09-24T09:52:24.662Z,9.57
2022-09-24T09:54:52.942Z,9.57
2022-09-24T09:57:23.086Z,9.05
2022-09-24T09:59:53.888Z,10.52
2022-09-24T10:02:24.681Z,9.38
2022-09-24T10:04:57.009Z,11.80
2022-09-24T10:07:25.804Z,10.82
2022-09-24T10:10:02.291Z,9.68
2022-09-24T10:12:30.829Z,9.57
2022-09-24T10:15:01.804Z,11.60
2022-09-24T10:17:31.741Z,8.80
2022-09-24T10:20:02.188Z,10.27
2022-09-24T10:22:30.792Z,10.32
2022-09-24T10:25:01.065Z,9.55
2022-09-24T10:27:32.474Z,7.88
2022-09-24T10:30:20.473Z,8.57
2022-09-24T10:32:49.212Z,10.27
2022-09-24T10:35:22.546Z,9.05
2022-09-24T10:37:54.672Z,9.55
2022-09-24T10:40:25.629Z,12.48
2022-09-24T10:42:58.022Z,8.27
2022-09-24T10:45:31.013Z,9.70
2022-09-24T10:48:04.991Z,9.60
2022-09-24T10:50:36.085Z,8.82
2022-09-24T10:53:08.779Z,14.07
2022-09-24T10:55:44.204Z,8.45
2022-09-24T10:58:25.073Z,8.75
2022-09-24T11:01:00.107Z,8.02
2022-09-24T11:03:43.714Z,8.15
2022-09-24T11:06:18.098Z,8.13
2022-09-24T11:08:56.485Z,10.75
2022-09-24T11:11:31.280Z,9.18
2022-09-24T11:14:04.844Z,8.23
2022-09-24T11:16:45.365Z,10.57
2022-09-24T11:19:21.984Z,7.25
2022-09-24T11:21:58.685Z,7.63
2022-09-24T11:24:41.814Z,8.48
2022-09-24T11:27:23.260Z,8.70
2022-09-24T11:30:02.671Z,8.80
2022-09-24T11:32:35.387Z,8.15
2022-09-24T11:35:20.333Z,9.25
2022-09-24T11:37:54.867Z,7.50
2022-09-24T11:40:30.878Z,8.68
2022-09-24T11:43:06.673Z,12.88
2022-09-24T11:45:42.976Z,11.52
2022-09-24T11:48:18.640Z,10.55
2022-09-24T11:50:51.438Z,8.98
2022-09-24T11:53:26.792Z,8.38
2022-09-24T11:55:57.990Z,8.18
2022-09-24T11:58:28.862Z,9.45
2022-09-24T12:00:59.630Z,9.15
2022-09-24T12:03:34.798Z,10.60
2022-09-24T12:06:05.829Z,12.80
2022-09-24T12:08:37.140Z,7.20
2022-09-24T12:11:08.559Z,7.85
2022-09-24T12:13:41.133Z,6.25
2022-09-24T12:16:12.054Z,10.90
2022-09-24T12:18:44.982Z,10.93
2022-09-24T12:21:17.185Z,6.88
2022-09-24T12:23:46.617Z,6.13
2022-09-24T12:26:16.915Z,6.13
2022-09-24T12:29:06.435Z,7.72
2022-09-24T12:31:57.450Z,9.38
2022-09-24T12:34:31.187Z,9.05
2022-09-24T12:37:01.282Z,7.32
2022-09-24T12:39:31.538Z,6.13
2022-09-24T12:42:01.393Z,5.75
2022-09-24T12:44:34.155Z,6.85
2022-09-24T12:47:02.842Z,7.70
2022-09-24T12:49:34.468Z,7.43
2022-09-24T12:52:05.002Z,5.65
2022-09-24T12:54:37.435Z,6.78
2022-09-24T12:57:11.085Z,5.75
2022-09-24T12:59:48.519Z,7.72
2022-09-24T13:02:18.319Z,6.70
2022-09-24T13:04:51.982Z,7.13
2022-09-24T13:07:30.744Z,7.72
2022-09-24T13:09:59.071Z,5.97
2022-09-24T13:12:33.019Z,5.60
2022-09-24T13:15:04.391Z,5.60
2022-09-24T13:17:34.035Z,5.38
2022-09-24T13:20:07.450Z,4.95
2022-09-24T13:22:37.054Z,5.55
2022-09-24T13:25:20.316Z,5.25
2022-09-24T13:27:57.625Z,6.82
2022-09-24T13:30:35.231Z,5.03
2022-09-24T13:33:07.638Z,5.05
2022-09-24T13:35:43.368Z,5.82
2022-09-24T13:38:17.965Z,5.97
2022-09-24T13:40:50.359Z,6.20
2022-09-24T13:43:21.425Z,4.35
2022-09-24T13:45:49.960Z,5.97
2022-09-24T13:48:20.898Z,6.35
2022-09-24T13:50:53.303Z,7.65
2022-09-24T13:53:24.637Z,5.93
2022-09-24T13:55:54.852Z,5.85
2022-09-24T13:58:29.794Z,5.90
2022-09-24T14:00:59.798Z,7.95
2022-09-24T14:03:30.201Z,6.30
2022-09-24T14:06:00.206Z,6.50
2022-09-24T14:08:29.839Z,7.60
2022-09-24T14:11:07.964Z,5.53
2022-09-24T14:13:38.399Z,8.07
2022-09-24T14:16:10.041Z,6.47
2022-09-24T14:18:39.845Z,7.97
2022-09-24T14:21:11.138Z,6.45
2022-09-24T14:23:41.214Z,6.18
2022-09-24T14:26:12.487Z,9.10
2022-09-24T14:28:40.868Z,11.55
2022-09-24T14:31:10.584Z,8.35
2022-09-24T14:33:40.451Z,6.95
2022-09-24T14:36:12.084Z,5.78
2022-09-24T14:38:53.225Z,6.97
2022-09-24T14:41:23.334Z,5.68
2022-09-24T14:43:53.876Z,6.28
2022-09-24T14:46:24.012Z,6.50
2022-09-24T14:48:53.168Z,6.15
2022-09-24T14:51:27.849Z,5.43
2022-09-24T14:54:00.332Z,7.15
2022-09-24T14:56:29.386Z,6.93
2022-09-24T14:58:57.725Z,8.68
2022-09-24T15:01:27.569Z,8.30
2022-09-24T15:03:56.602Z,8.30
2022-09-24T15:06:26.058Z,7.30
2022-09-24T15:08:58.675Z,7.60
2022-09-24T15:11:28.642Z,7.40
2022-09-24T15:14:01.021Z,5.22
2022-09-24T15:16:31.514Z,6.30
2022-09-24T15:19:01.185Z,12.50
2022-09-24T15:21:30.067Z,11.63
2022-09-24T15:23:59.682Z,7.32
2022-09-24T15:26:30.010Z,9.73
2022-09-24T15:28:58.828Z,8.80
2022-09-24T15:31:27.250Z,6.82
2022-09-24T15:33:55.972Z,7.55
2022-09-24T15:36:24.894Z,8.50
2022-09-24T15:38:54.083Z,7.47
2022-09-24T15:41:23.738Z,8.05
2022-09-24T15:43:52.041Z,11.70
2022-09-24T15:46:20.941Z,7.40
2022-09-24T15:48:49.226Z,6.70
2022-09-24T15:51:19.520Z,9.23
2022-09-24T15:53:47.892Z,8.88
2022-09-24T15:56:16.284Z,8.68
2022-09-24T15:58:45.936Z,7.43
2022-09-24T16:01:17.649Z,8.05
2022-09-24T16:03:46.114Z,11.07
2022-09-24T16:06:15.014Z,11.60
2022-09-24T16:08:43.718Z,10.10
2022-09-24T16:11:11.992Z,7.93
2022-09-24T16:13:40.285Z,7.97
2022-09-24T16:16:10.227Z,9.55
2022-09-24T16:18:39.756Z,9.40
2022-09-24T16:21:08.591Z,14.35
2022-09-24T16:23:36.933Z,10.20
2022-09-24T16:26:05.622Z,7.35
2022-09-24T16:28:33.979Z,6.75
2022-09-24T16:31:06.323Z,7.22
2022-09-24T16:33:38.452Z,11.90
2022-09-24T16:36:07.156Z,11.35
2022-09-24T16:38:36.175Z,15.15
2022-09-24T16:41:04.934Z,14.88
2022-09-24T16:43:33.444Z,13.95
2022-09-24T16:46:03.619Z,23.92
2022-09-24T16:48:32.340Z,26.83
2022-09-24T16:51:04.874Z,28.33
2022-09-24T16:53:34.122Z,25.95
2022-09-24T16:56:06.616Z,27.23
2022-09-24T16:58:34.920Z,21.88
2022-09-24T17:01:05.201Z,21.77
2022-09-24T17:03:33.514Z,17.00
2022-09-24T17:06:02.024Z,15.43
2022-09-24T17:08:46.469Z,14.48
2022-09-24T17:11:14.768Z,16.48
2022-09-24T17:13:43.092Z,17.60
2022-09-24T17:16:11.487Z,15.65
2022-09-24T17:18:40.046Z,15.48
2022-09-24T17:21:09.240Z,15.82
2022-09-24T17:23:39.285Z,14.27
2022-09-24T17:26:08.344Z,15.88
2022-09-24T17:28:36.943Z,16.75
2022-09-24T17:31:05.509Z,14.93
2022-09-24T17:33:48.952Z,13.55
2022-09-24T17:36:17.274Z,15.48
2022-09-24T17:38:46.925Z,15.10
2022-09-24T17:41:15.521Z,14.88
2022-09-24T17:43:43.798Z,15.02
2022-09-24T17:46:14.583Z,14.70
2022-09-24T17:48:45.257Z,13.63
2022-09-24T17:51:14.355Z,11.52
2022-09-24T17:53:42.681Z,16.48
2022-09-24T17:56:13.762Z,16.05
2022-09-24T17:58:43.098Z,13.25
2022-09-24T18:01:12.260Z,11.23
2022-09-24T18:03:41.095Z,10.10
2022-09-24T18:06:10.646Z,9.48
2022-09-24T18:08:39.293Z,13.52
2022-09-24T18:11:08.513Z,10.00
2022-09-24T18:13:38.758Z,13.38
2022-09-24T18:16:07.733Z,13.45
2022-09-24T18:18:36.387Z,12.27
2022-09-24T18:21:06.436Z,13.82
2022-09-24T18:23:35.456Z,14.75
2022-09-24T18:26:11.720Z,10.90
2022-09-24T18:28:41.917Z,8.60
2022-09-24T18:31:13.066Z,11.88
2022-09-24T18:33:42.252Z,9.45
2022-09-24T18:36:11.479Z,10.30
2022-09-24T18:38:40.113Z,9.77
2022-09-24T18:41:09.107Z,10.18
2022-09-24T18:43:37.475Z,11.85
2022-09-24T18:46:07.784Z,12.38
2022-09-24T18:48:36.226Z,14.98
2022-09-24T18:51:05.075Z,13.57
2022-09-24T18:53:35.151Z,14.75
2022-09-24T18:56:05.902Z,12.85
2022-09-24T18:58:34.334Z,12.45
2022-09-24T19:01:03.149Z,13.70
2022-09-24T19:03:32.846Z,13.60
2022-09-24T19:06:02.162Z,25.88
2022-09-24T19:08:31.929Z,35.03
2022-09-24T19:11:03.212Z,17.88
2022-09-24T19:13:31.883Z,8.43
2022-09-24T19:16:04.517Z,8.43
2022-09-24T19:18:35.312Z,15.18
2022-09-24T19:21:06.318Z,8.40
2022-09-24T19:23:37.381Z,6.32
2022-09-24T19:26:06.112Z,6.93
2022-09-24T19:28:34.649Z,7.13
2022-09-24T19:31:03.934Z,6.03
2022-09-24T19:33:32.250Z,8.02
2022-09-24T19:36:04.538Z,6.93
2022-09-24T19:38:33.449Z,7.00
2022-09-24T19:41:02.438Z,6.53
2022-09-24T19:43:33.489Z,7.10
2022-09-24T19:46:02.440Z,8.98
2022-09-24T19:48:31.769Z,10.77
2022-09-24T19:51:05.737Z,10.15
2022-09-24T19:53:34.193Z,9.57
2022-09-24T19:56:02.730Z,8.68
2022-09-24T19:58:31.787Z,7.78
2022-09-24T20:01:02.541Z,8.93
2022-09-24T20:03:32.578Z,8.05
2022-09-24T20:06:00.896Z,9.30
2022-09-24T20:08:30.536Z,8.63
2022-09-24T20:11:04.637Z,9.68
2022-09-24T20:13:32.919Z,9.00
2022-09-24T20:16:02.725Z,9.05
2022-09-24T20:18:32.923Z,11.35
2022-09-24T20:21:03.949Z,9.20
2022-09-24T20:23:33.804Z,10.60
2022-09-24T20:26:19.702Z,13.02
2022-09-24T20:28:47.988Z,9.80
2022-09-24T20:31:20.868Z,14.20
2022-09-24T20:33:49.683Z,11.77
2022-09-24T20:36:23.294Z,12.75
2022-09-24T20:38:54.141Z,14.32
2022-09-24T20:41:22.885Z,13.75
2022-09-24T20:43:51.585Z,13.00
2022-09-24T20:46:24.034Z,15.43
2022-09-24T20:48:52.596Z,12.60
2022-09-24T20:51:22.762Z,17.33
2022-09-24T20:53:51.356Z,17.38
2022-09-24T20:56:21.348Z,14.93
2022-09-24T20:58:50.616Z,13.63
2022-09-24T21:01:19.084Z,12.82
2022-09-24T21:03:48.485Z,14.18
2022-09-24T21:06:16.930Z,16.35
2022-09-24T21:08:45.739Z,18.40
2022-09-24T21:11:15.978Z,16.13
2022-09-24T21:13:48.941Z,14.10
2022-09-24T21:16:20.498Z,14.85
2022-09-24T21:18:49.348Z,14.68
2022-09-24T21:21:18.648Z,16.88
2022-09-24T21:23:47.628Z,16.17
2022-09-24T21:26:18.405Z,12.95
2022-09-24T21:28:48.745Z,13.68
2022-09-24T21:31:17.590Z,15.88
2022-09-24T21:33:46.982Z,12.55
2022-09-24T21:36:18.476Z,15.10
2022-09-24T21:38:47.164Z,11.70
2022-09-24T21:41:15.458Z,14.50
2022-09-24T21:43:43.732Z,13.45
2022-09-24T21:46:14.309Z,13.82
2022-09-24T21:48:42.661Z,13.32
2022-09-24T21:51:13.579Z,17.00
2022-09-24T21:53:41.890Z,13.20
2022-09-24T21:56:10.167Z,14.55
2022-09-24T21:58:38.489Z,18.05
2022-09-24T22:01:08.616Z,18.77
2022-09-24T22:03:38.891Z,16.38
2022-09-24T22:06:07.334Z,16.10
2022-09-24T22:08:35.630Z,16.83
2022-09-24T22:11:04.932Z,19.48
2022-09-24T22:13:34.278Z,15.88
2022-09-24T22:16:02.725Z,15.65
2022-09-24T22:18:31.395Z,15.57
2022-09-24T22:21:06.115Z,16.25
2022-09-24T22:23:34.948Z,15.48
2022-09-24T22:26:03.432Z,16.70
2022-09-24T22:28:31.720Z,14.13
2022-09-24T22:31:01.298Z,11.98
2022-09-24T22:33:48.638Z,16.65
2022-09-24T22:36:19.281Z,13.90
2022-09-24T22:38:49.292Z,14.23
2022-09-24T22:41:17.629Z,13.43
2022-09-24T22:43:46.111Z,12.82
2022-09-24T22:46:16.354Z,12.52
2022-09-24T22:48:45.369Z,12.60
2022-09-24T22:51:13.629Z,13.15
2022-09-24T22:53:43.676Z,16.55
2022-09-24T22:56:13.419Z,11.60
2022-09-24T22:58:44.738Z,16.05
2022-09-24T23:01:14.297Z,14.23
2022-09-24T23:03:43.256Z,10.63
2022-09-24T23:06:12.613Z,10.68
2022-09-24T23:08:42.335Z,10.80
2022-09-24T23:11:12.948Z,11.40
2022-09-24T23:13:42.189Z,12.45
2022-09-24T23:16:11.690Z,11.35
2022-09-24T23:18:40.440Z,11.30
2022-09-24T23:21:09.983Z,10.40
2022-09-24T23:23:38.401Z,11.43
2022-09-24T23:26:07.606Z,11.15
2022-09-24T23:28:37.528Z,13.93
2022-09-24T23:31:05.893Z,12.23
2022-09-24T23:33:34.941Z,10.55
2022-09-24T23:36:03.912Z,10.75
2022-09-24T23:38:32.302Z,12.05
2022-09-24T23:41:02.066Z,12.48
2022-09-24T23:43:30.366Z,13.65
2022-09-24T23:46:00.060Z,14.20
2022-09-24T23:48:28.390Z,12.57
2022-09-24T23:50:57.078Z,14.02
2022-09-24T23:53:26.002Z,15.02
2022-09-24T23:55:54.847Z,15.40
2022-09-24T23:58:24.372Z,15.95
